METAR stanice u blizini

 

LYBE - Beograd / Surčin, Srbija
Ažurirano: 22/01/2018 21:00
Partly Cloudy
Partly Cloudy
 Pravac vetra JJI
Vetar: JJI 11 km/h
Temperatura: -1°C
Osećaj hladnoće: -5°C
Tačka rose: -3°C
Vlažnost: 86%
Pritisak: 1017 hPa
Oblaci: Partly Cloudy
Vidljivost: 6 km
2018/01/22 20:00 LYBE 222000Z 15006KT 6000 NSC M01/M03 Q1017 NOSIG
LYBT - Beograd / Batajnica, Srbija
Ažurirano: 22/01/2018 21:00
Mist, Delimično oblačno
Mist, Delimično oblačno
 Pravac vetra JI
Vetar: JI 4 km/h
Temperatura: -2°C
Tačka rose: -3°C
Vlažnost: 93%
Pritisak: 1017 hPa
Pregled: Mist
Oblaci: Partly Cloudy
Vidljivost: 3 km
2018/01/22 20:00 LYBT 222000Z 13002KT 3000 BR NSC M02/M03 Q1017 NOSIG
LYVR - Vršac, Srbija
Ažurirano: 22/01/2018 21:00
Vedro
Vedro
 Pravac vetra varies
Vetar: varies 2 km/h
Temperatura: 1°C
Tačka rose: -2°C
Vlažnost: 81%
Pritisak: 1018 hPa
Pregled: Vedro
Vidljivost: greater than 10 km
2018/01/22 20:00 LYVR 222000Z VRB01KT CAVOK 01/M02 Q1018 NOSIG
 
LYKV - Lađevci, Srbija
Ažurirano: 22/01/2018 21:00
Vedro
Vedro
 Pravac vetra ISI
Vetar: ISI 6 km/h
Temperatura: -2°C
Tačka rose: -5°C
Vlažnost: 80%
Pritisak: 1018 hPa
Pregled: Vedro
Vidljivost: greater than 10 km
2018/01/22 20:00 LYKV 222000Z 06003KT CAVOK M02/M05 Q1018 NOSIG
LYNI - Niš, Srbija
Ažurirano: 22/01/2018 21:00
Mostly Cloudy
Mostly Cloudy
 Pravac vetra varies
Vetar: varies 2 km/h
Temperatura: 0°C
Tačka rose: -2°C
Vlažnost: 87%
Pritisak: 1017 hPa
Oblaci: Mostly Cloudy
Vidljivost: 10 km
Cloud details: Mostly Cloudy 1219 m
2018/01/22 20:00 LYNI 222000Z VRB01KT 9999 BKN040 00/M02 Q1017 R11/1///95
BKPR - Priština, Srbija
Ažurirano: 22/01/2018 21:00
Vedro
Vedro
 Pravac vetra varies
Vetar: varies 4 km/h
Temperatura: -5°C
Tačka rose: -8°C
Vlažnost: 80%
Pritisak: 1016 hPa
Pregled: Vedro
Vidljivost: greater than 10 km
2018/01/22 20:00 BKPR 222000Z VRB02KT CAVOK M05/M08 Q1016 NOSIG RMK 17290095
 
LHPP - Pecs / Pogany, Hungary
Ažurirano: 22/01/2018 17:45
NOT Current
Vedro
Vedro
 Pravac vetra JJI
Vetar: JJI 9 km/h
Temperatura: 1°C
Osećaj hladnoće: -2°C
Tačka rose: -3°C
Vlažnost: 75%
Pritisak: 1015 hPa
Pregled: Vedro
Vidljivost: greater than 10 km
2018/01/22 16:45 LHPP 221645Z 15005KT CAVOK 01/M03 Q1015
LHUD - Szeged, Hungary
Ažurirano: 22/01/2018 20:45
Vedro
Vedro
 Pravac vetra IJI
Vetar: IJI 7 km/h
Temperatura: -1°C
Osećaj hladnoće: -4°C
Tačka rose: -2°C
Vlažnost: 93%
Pritisak: 1017 hPa
Pregled: Vedro
Vidljivost: greater than 10 km
2018/01/22 19:45 LHUD 221945Z 11004KT CAVOK M01/M02 Q1017
LRTR - Timisoara, Romania
Ažurirano: 22/01/2018 21:00
Partly Cloudy
Partly Cloudy
 Pravac vetra calm
Vetar: Tišina
Temperatura: -1°C
Tačka rose: -2°C
Vlažnost: 93%
Pritisak: 1017 hPa
Oblaci: Partly Cloudy
Vidljivost: 10 km
Cloud details: Partly Cloudy 732 m
2018/01/22 20:00 LRTR 222000Z 00000KT 9999 SCT024 M01/M02 Q1017 NOSIG
 
LRCV - Craiova, Romania
Ažurirano: 22/01/2018 21:00
Oblačno
Oblačno
 Pravac vetra JJZ
Vetar: JJZ 9 km/h
Temperatura: 0°C
Osećaj hladnoće: -3°C
Tačka rose: -1°C
Vlažnost: 93%
Pritisak: 1015 hPa
Oblaci: Oblačno
Cloud details: Few Clouds 1250 m
Oblačno 1524 m
2018/01/22 20:00 LRCV 222000Z AUTO 20005KT FEW041/// OVC050/// 00/M01 Q1015
LBSF - Sofia, Bulgaria
Ažurirano: 22/01/2018 21:00
Oblačno
Oblačno
 Pravac vetra Z
Vetar: Z 19 km/h
Temperatura: 0°C
Osećaj hladnoće: -5°C
Tačka rose: -2°C
Vlažnost: 87%
Pritisak: 1015 hPa
Oblaci: Oblačno
Vidljivost: 10 km
Cloud details: Oblačno 853 m
2018/01/22 20:00 LBSF 222000Z 28010KT 9999 OVC028 00/M02 Q1015 R99/19//95 NOSIG
LWSK - Skoplje, Makedonija
Ažurirano: 22/01/2018 20:30
Mostly Cloudy
Mostly Cloudy
 Pravac vetra SI
Vetar: SI 7 km/h
Temperatura: 1°C
Osećaj hladnoće: -2°C
Tačka rose: -3°C
Vlažnost: 75%
Pritisak: 1017 hPa
Oblaci: Mostly Cloudy
Vidljivost: 10 km
Cloud details: Mostly Cloudy 1524 m
2018/01/22 19:30 LWSK 221930Z 04004KT 9999 BKN050 01/M03 Q1017 NOSIG
 
LYPG - Podgorica, Crna Gora
Ažurirano: 22/01/2018 21:00
Vedro
Vedro
 Pravac vetra S
Vetar: S 20 km/h
Temperatura: 5°C
Osećaj hladnoće: 1°C
Tačka rose: -8°C
Vlažnost: 39%
Pritisak: 1016 hPa
Pregled: Vedro
Vidljivost: greater than 10 km
2018/01/22 20:00 LYPG 222000Z 35011KT 250V020 CAVOK 05/M08 Q1016 NOSIG
LQSA - Sarajevo, Bosna i Hercegovina
Ažurirano: 22/01/2018 21:00
Vedro
Vedro
 Pravac vetra I
Vetar: I 9 km/h
Temperatura: -3°C
Osećaj hladnoće: -7°C
Tačka rose: -6°C
Vlažnost: 80%
Pritisak: 1016 hPa
Pregled: Vedro
Vidljivost: greater than 10 km
2018/01/22 20:00 LQSA 222000Z 10005KT 070V140 CAVOK M03/M06 Q1016 NOSIG
LDOS - Osijek, Hrvatksa
Ažurirano: 22/01/2018 21:00
Vedro
Vedro
 Pravac vetra IJI
Vetar: IJI 11 km/h
Temperatura: -1°C
Osećaj hladnoće: -5°C
Tačka rose: -2°C
Vlažnost: 93%
Pritisak: 1016 hPa
Pregled: Vedro
Vidljivost: greater than 10 km
2018/01/22 20:00 LDOS 222000Z 11006KT CAVOK M01/M02 Q1016